Time;durP1;ratioP1;P1;durP2;ratioP2;P2;SDS_P1;SDS_P2;PMS_P1;PMS_P2;Temp;Humidity;BMP_temperature;BMP_pressure;BME280_temperature;BME280_humidity;BME280_pressure;Samples;Min_cycle;Max_cycle;Signal;HPM_P1;HPM_P2
2022/01/22 00:01:50;;;;;;;1.43;0.83;;;-8.30;99.90;;;;;;2220818;64;20107;-36
2022/01/22 00:04:17;;;;;;;1.93;0.70;;;-8.20;99.90;;;;;;2220617;64;20531;-37
2022/01/22 00:06:43;;;;;;;0.87;0.60;;;-8.20;99.90;;;;;;2216970;64;20499;-36
2022/01/22 00:09:11;;;;;;;1.77;0.70;;;-8.30;99.90;;;;;;2216978;64;20170;-35
2022/01/22 00:11:41;;;;;;;1.07;0.50;;;-8.20;99.90;;;;;;2220537;64;20169;-37
2022/01/22 00:14:26;;;;;;;2.20;0.93;;;-8.30;99.90;;;;;;2220730;64;20098;-36
2022/01/22 00:16:53;;;;;;;1.95;0.52;;;-8.30;99.90;;;;;;2220511;64;20243;-41
2022/01/22 00:19:20;;;;;;;1.00;0.50;;;-8.20;99.90;;;;;;2220833;64;20103;-40
2022/01/22 00:21:46;;;;;;;0.90;0.50;;;-8.20;99.90;;;;;;2220639;64;20142;-37
2022/01/22 00:24:16;;;;;;;0.50;0.30;;;-8.20;99.90;;;;;;2220707;64;20104;-37
2022/01/22 00:26:42;;;;;;;2.40;0.73;;;-8.20;99.90;;;;;;2224423;64;20084;-37
2022/01/22 00:29:10;;;;;;;2.73;0.90;;;-8.30;99.90;;;;;;2224675;64;20083;-37
2022/01/22 00:31:39;;;;;;;1.50;0.50;;;-8.30;99.90;;;;;;2220652;64;20095;-38
2022/01/22 00:34:06;;;;;;;0.90;0.40;;;-8.30;99.90;;;;;;2224363;64;20529;-41
2022/01/22 00:36:33;;;;;;;0.70;0.30;;;-8.20;99.90;;;;;;2220470;64;20607;-36
2022/01/22 00:38:59;;;;;;;2.73;1.20;;;-8.20;99.90;;;;;;2224684;64;20092;-36
2022/01/22 00:41:26;;;;;;;1.03;0.70;;;-8.20;99.90;;;;;;2224457;64;20094;-39
2022/01/22 00:43:53;;;;;;;2.00;0.60;;;-8.30;99.90;;;;;;2224470;64;20552;-37
2022/01/22 00:46:21;;;;;;;3.50;1.23;;;-8.30;99.90;;;;;;2224551;64;20111;-36
2022/01/22 00:48:47;;;;;;;2.63;1.30;;;-8.30;99.90;;;;;;2224487;64;20096;-38
2022/01/22 00:51:14;;;;;;;2.97;0.83;;;-8.30;99.90;;;;;;2224361;64;20169;-37
2022/01/22 00:53:40;;;;;;;2.03;0.70;;;-8.30;99.90;;;;;;2224429;64;20176;-35
2022/01/22 00:56:07;;;;;;;2.17;1.03;;;-8.20;99.90;;;;;;2224167;64;20084;-37
2022/01/22 00:58:33;;;;;;;1.87;1.00;;;-8.30;99.90;;;;;;2224363;64;20139;-36
2022/01/22 01:01:00;;;;;;;2.53;1.13;;;-8.20;99.90;;;;;;2224498;64;20084;-37
2022/01/22 01:03:31;;;;;;;2.10;0.50;;;-8.20;99.90;;;;;;2224606;64;20100;-36
2022/01/22 01:05:57;;;;;;;1.40;0.57;;;-8.20;99.90;;;;;;2224308;64;20112;-36
2022/01/22 01:08:24;;;;;;;4.97;1.23;;;-8.20;99.90;;;;;;2224549;64;20167;-37
2022/01/22 01:10:51;;;;;;;3.40;1.60;;;-8.20;99.90;;;;;;2224510;64;20107;-36
2022/01/22 01:13:18;;;;;;;2.00;1.00;;;-8.20;99.90;;;;;;2224542;64;20092;-37
2022/01/22 01:16:16;;;;;;;4.17;1.67;;;-8.20;99.90;;;;;;2224393;64;20088;-38
2022/01/22 01:32:39;;;;;;;4.63;1.63;;;-8.10;99.90;;;;;;2221301;64;20096;-36
2022/01/22 01:35:06;;;;;;;2.90;1.17;;;-8.10;99.90;;;;;;2221171;64;20116;-38
2022/01/22 01:37:33;;;;;;;2.93;1.20;;;-8.10;99.90;;;;;;2221250;64;20111;-36
2022/01/22 01:40:03;;;;;;;3.77;1.33;;;-8.10;99.90;;;;;;2217226;64;20135;-35
2022/01/22 01:43:35;;;;;;;2.60;0.73;;;-8.10;99.90;;;;;;2221176;64;20100;-36
2022/01/22 01:45:25;;;;;;;3.55;1.23;;;-8.10;99.90;;;;;;2217890;64;20096;-36
2022/01/22 01:48:01;;;;;;;6.10;1.10;;;-8.10;99.90;;;;;;2221292;64;20104;-36
2022/01/22 01:50:30;;;;;;;2.17;1.33;;;-8.10;99.90;;;;;;2221050;64;20514;-35
2022/01/22 01:58:20;;;;;;;1.45;0.98;;;-8.10;99.90;;;;;;2221026;64;20484;-36
2022/01/22 02:00:47;;;;;;;3.20;1.33;;;-8.00;99.90;;;;;;2216125;64;20112;-37
2022/01/22 02:03:14;;;;;;;5.37;2.60;;;-8.00;99.90;;;;;;2221013;64;20084;-38
2022/01/22 02:05:40;;;;;;;6.63;1.43;;;-8.00;99.90;;;;;;2220954;64;20159;-42
2022/01/22 02:08:07;;;;;;;2.63;1.13;;;-8.00;99.90;;;;;;2221197;64;20092;-37
2022/01/22 02:10:38;;;;;;;3.53;1.80;;;-8.00;99.90;;;;;;2220793;64;20096;-36
2022/01/22 02:24:06;;;;;;;3.65;1.95;;;-8.00;99.90;;;;;;2221121;64;20596;-36
2022/01/22 02:26:32;;;;;;;3.90;1.30;;;-8.00;99.90;;;;;;2224261;64;20095;-38
2022/01/22 02:28:59;;;;;;;5.07;2.03;;;-8.00;99.90;;;;;;2224863;64;20472;-39
2022/01/22 02:31:42;;;;;;;1.00;0.50;;;-8.00;99.90;;;;;;2224935;64;20543;-36
2022/01/22 02:34:19;;;;;;;2.80;1.07;;;-8.00;99.90;;;;;;2224967;64;20091;-38
2022/01/22 02:36:59;;;;;;;14.50;3.23;;;-8.00;99.90;;;;;;2224695;64;20567;-37
2022/01/22 02:39:59;;;;;;;6.43;2.93;;;-8.00;99.90;;;;;;2224847;64;20177;-37
2022/01/22 02:42:13;;;;;;;6.23;2.13;;;-7.90;99.90;;;;;;2224380;64;20564;-38
2022/01/22 02:44:45;;;;;;;1.73;0.90;;;-8.00;99.90;;;;;;2224856;64;20103;-38
2022/01/22 02:47:14;;;;;;;3.87;1.90;;;-8.00;99.90;;;;;;2224855;64;20107;-40
2022/01/22 02:49:40;;;;;;;3.53;1.20;;;-8.00;99.90;;;;;;2224838;64;20134;-38
2022/01/22 02:52:08;;;;;;;5.53;2.03;;;-8.00;99.90;;;;;;2224770;64;20193;-38
2022/01/22 02:54:35;;;;;;;3.87;2.00;;;-8.00;99.90;;;;;;2224805;64;20192;-38
2022/01/22 02:57:02;;;;;;;6.27;2.23;;;-8.00;99.90;;;;;;2224608;64;20292;-36
2022/01/22 02:59:28;;;;;;;6.47;3.50;;;-8.00;99.90;;;;;;2224750;64;20080;-37
2022/01/22 03:01:55;;;;;;;6.60;2.20;;;-7.90;99.90;;;;;;2224756;64;20560;-39
2022/01/22 03:04:21;;;;;;;7.07;1.53;;;-7.90;99.90;;;;;;2224821;64;20590;-40
2022/01/22 03:06:49;;;;;;;5.87;3.10;;;-7.90;99.90;;;;;;2224626;64;20502;-35
2022/01/22 03:09:17;;;;;;;8.20;3.30;;;-7.90;99.90;;;;;;2224829;64;20104;-37
2022/01/22 03:12:17;;;;;;;4.73;2.37;;;-7.90;99.90;;;;;;2224569;64;20537;-39
2022/01/22 03:27:32;;;;;;;5.88;2.35;;;-7.80;99.90;;;;;;2220794;64;20144;-35
2022/01/22 03:29:59;;;;;;;6.63;3.37;;;-7.80;99.90;;;;;;2220902;64;20599;-37
2022/01/22 03:32:34;;;;;;;7.80;3.20;;;-7.70;99.90;;;;;;2220604;64;20092;-38
2022/01/22 03:35:08;;;;;;;6.30;1.52;;;-7.70;99.90;;;;;;2220907;64;20093;-37
2022/01/22 03:37:34;;;;;;;4.43;1.23;;;-7.70;99.90;;;;;;2220651;64;20123;-38
2022/01/22 03:40:01;;;;;;;8.97;4.50;;;-7.70;99.90;;;;;;2220911;64;20290;-38
2022/01/22 03:42:27;;;;;;;1.90;1.00;;;-7.70;99.90;;;;;;2220496;64;20205;-39
2022/01/22 03:44:54;;;;;;;3.87;1.43;;;-7.70;99.90;;;;;;2220836;64;20116;-38
2022/01/22 03:47:20;;;;;;;7.53;3.60;;;-7.70;99.90;;;;;;2220652;64;20127;-38
2022/01/22 03:49:47;;;;;;;4.70;1.73;;;-7.60;99.90;;;;;;2220802;64;20100;-36
2022/01/22 03:52:13;;;;;;;3.67;2.73;;;-7.60;99.90;;;;;;2220480;64;20354;-42
2022/01/22 03:54:40;;;;;;;2.50;0.83;;;-7.60;99.90;;;;;;2220697;64;20089;-39
2022/01/22 03:57:08;;;;;;;3.77;1.83;;;-7.70;99.90;;;;;;2220840;64;20085;-36
2022/01/22 03:59:35;;;;;;;16.20;3.00;;;-7.60;99.90;;;;;;2220535;64;20107;-41
2022/01/22 04:04:33;;;;;;;4.90;2.00;;;-7.70;99.90;;;;;;2214930;64;20172;-41
2022/01/22 04:09:45;;;;;;;4.18;1.50;;;-7.70;99.90;;;;;;2214978;64;20081;-38
2022/01/22 04:12:15;;;;;;;4.73;2.50;;;-7.70;99.90;;;;;;2215161;64;20108;-41
2022/01/22 04:14:48;;;;;;;7.07;3.30;;;-7.70;99.90;;;;;;2215133;64;20100;-41
2022/01/22 04:25:15;;;;;;;8.88;2.42;;;-7.60;99.90;;;;;;2216247;64;20081;-37
2022/01/22 04:27:42;;;;;;;9.73;2.53;;;-7.60;99.90;;;;;;2218804;64;20076;-42
2022/01/22 04:30:09;;;;;;;4.67;2.47;;;-7.60;99.90;;;;;;2218998;64;20097;-41
2022/01/22 04:32:35;;;;;;;3.57;2.03;;;-7.60;99.90;;;;;;2215717;64;20255;-42
2022/01/22 04:35:02;;;;;;;4.97;1.50;;;-7.60;99.90;;;;;;2220646;64;20598;-42
2022/01/22 04:37:28;;;;;;;6.87;2.03;;;-7.60;99.90;;;;;;2224431;64;20072;-41
2022/01/22 04:39:55;;;;;;;4.63;2.10;;;-7.60;99.90;;;;;;2224401;64;20173;-41
2022/01/22 04:42:22;;;;;;;3.87;2.13;;;-7.60;99.90;;;;;;2224449;64;20084;-42
2022/01/22 04:44:57;;;;;;;7.10;1.73;;;-7.60;99.90;;;;;;2224561;64;20100;-38
2022/01/22 04:54:58;;;;;;;9.40;3.97;;;-7.50;99.90;;;;;;2224358;64;20558;-39
2022/01/22 04:55:30;;;;;;;5.57;2.53;;;-7.50;99.90;;;;;;2224239;64;20568;-43
2022/01/22 04:57:57;;;;;;;5.47;3.57;;;-7.50;99.90;;;;;;2224396;64;20111;-41
2022/01/22 05:00:24;;;;;;;8.03;3.57;;;-7.40;99.90;;;;;;2224241;64;20118;-40
2022/01/22 05:02:50;;;;;;;6.27;2.20;;;-7.40;99.90;;;;;;2224764;64;20118;-45
2022/01/22 05:05:17;;;;;;;4.73;1.80;;;-7.40;99.90;;;;;;2224913;64;20110;-44
2022/01/22 05:07:43;;;;;;;6.03;2.40;;;-7.40;99.90;;;;;;2225179;64;20583;-44
2022/01/22 05:10:10;;;;;;;4.53;1.50;;;-7.40;99.90;;;;;;2211617;64;20097;-43
2022/01/22 05:12:37;;;;;;;4.97;1.70;;;-7.30;99.90;;;;;;2211821;64;20681;-43
2022/01/22 05:15:04;;;;;;;8.33;2.50;;;-7.30;99.90;;;;;;2211706;64;20272;-42
2022/01/22 05:17:34;;;;;;;4.90;1.83;;;-7.30;99.90;;;;;;2211727;64;20081;-45
2022/01/22 05:20:09;;;;;;;3.30;1.27;;;-7.30;99.90;;;;;;2208649;64;20089;-43
2022/01/22 05:22:51;;;;;;;6.93;3.50;;;-7.20;99.90;;;;;;2211785;64;20085;-44
2022/01/22 05:25:24;;;;;;;7.03;4.27;;;-7.20;99.90;;;;;;2211660;64;20116;-44
2022/01/22 05:28:05;;;;;;;6.07;2.73;;;-7.20;99.90;;;;;;2211804;64;20074;-41
2022/01/22 05:38:23;;;;;;;6.43;3.07;;;-7.00;99.90;;;;;;2211737;64;20090;-45
2022/01/22 05:40:50;;;;;;;7.70;2.60;;;-7.00;99.90;;;;;;2215675;64;20084;-36
2022/01/22 05:43:16;;;;;;;6.00;2.60;;;-7.00;99.90;;;;;;2225033;64;20140;-39
2022/01/22 05:45:46;;;;;;;5.40;2.70;;;-7.00;99.90;;;;;;2217667;64;20184;-35
2022/01/22 05:48:12;;;;;;;3.80;2.33;;;-6.90;99.90;;;;;;2225102;64;20173;-37
2022/01/22 05:50:58;;;;;;;4.80;2.70;;;-6.90;99.90;;;;;;2224881;64;20111;-37
2022/01/22 06:01:17;;;;;;;4.63;2.83;;;-6.80;99.90;;;;;;2224845;64;20547;-35
2022/01/22 06:03:44;;;;;;;7.30;4.37;;;-6.80;99.90;;;;;;2224761;64;20108;-37
2022/01/22 06:06:11;;;;;;;4.37;1.83;;;-6.80;99.90;;;;;;2224665;64;20483;-37
2022/01/22 06:08:57;;;;;;;5.30;1.37;;;-6.80;99.90;;;;;;2224978;64;20088;-38
2022/01/22 06:11:26;;;;;;;9.50;4.57;;;-6.70;99.90;;;;;;2224798;64;20165;-37
2022/01/22 06:13:53;;;;;;;4.77;2.83;;;-6.70;99.90;;;;;;2224798;64;20107;-35
2022/01/22 06:16:23;;;;;;;3.67;1.43;;;-6.70;99.90;;;;;;2225053;64;20104;-38
2022/01/22 06:18:50;;;;;;;2.90;1.00;;;-6.60;99.90;;;;;;2217930;64;20556;-38
2022/01/22 06:21:19;;;;;;;2.33;1.03;;;-6.60;99.90;;;;;;2224887;64;20185;-37
2022/01/22 06:23:45;;;;;;;6.00;2.33;;;-6.60;99.90;;;;;;2224837;64;20169;-35
2022/01/22 06:26:12;;;;;;;6.23;1.97;;;-6.60;99.90;;;;;;2224714;64;20539;-39
2022/01/22 06:28:38;;;;;;;5.37;2.03;;;-6.60;99.90;;;;;;2224726;64;20128;-36
2022/01/22 06:31:07;;;;;;;7.37;3.23;;;-6.60;99.90;;;;;;2221086;64;20100;-36
2022/01/22 06:33:34;;;;;;;6.33;2.97;;;-6.50;99.90;;;;;;2224716;64;20145;-36
2022/01/22 06:36:00;;;;;;;4.03;1.57;;;-6.50;99.90;;;;;;2224776;64;20104;-36
2022/01/22 06:38:27;;;;;;;4.57;2.00;;;-6.50;99.90;;;;;;2220807;64;20083;-37
2022/01/22 06:43:39;;;;;;;2.70;1.20;;;-6.40;99.90;;;;;;2224810;64;20566;-37
2022/01/22 06:46:07;;;;;;;5.77;2.43;;;-6.30;99.90;;;;;;2224344;64;20100;-37
2022/01/22 06:48:34;;;;;;;6.30;2.00;;;-6.20;99.90;;;;;;2224879;64;20080;-37
2022/01/22 06:51:01;;;;;;;7.80;3.37;;;-6.20;99.90;;;;;;2224649;64;20172;-38
2022/01/22 06:53:28;;;;;;;5.17;1.20;;;-6.20;99.90;;;;;;2224662;64;20127;-36
2022/01/22 06:55:58;;;;;;;1.83;1.00;;;-6.10;99.90;;;;;;2224669;64;20108;-35
2022/01/22 06:58:25;;;;;;;7.50;3.33;;;-6.10;99.90;;;;;;2224674;64;20102;-37
2022/01/22 07:00:51;;;;;;;4.60;1.33;;;-6.10;99.90;;;;;;2224441;64;20165;-37
2022/01/22 07:03:18;;;;;;;3.57;1.83;;;-6.10;99.90;;;;;;2220950;64;20083;-38
2022/01/22 07:05:45;;;;;;;5.30;1.73;;;-6.00;99.90;;;;;;2220819;64;20456;-38
2022/01/22 07:08:11;;;;;;;4.17;1.27;;;-6.00;99.90;;;;;;2224653;64;20470;-37
2022/01/22 07:10:38;;;;;;;4.23;1.87;;;-5.90;99.90;;;;;;2224518;64;20088;-36
2022/01/22 07:13:05;;;;;;;6.37;3.73;;;-6.00;99.90;;;;;;2224567;64;20099;-36
2022/01/22 07:15:32;;;;;;;5.57;2.07;;;-5.90;99.90;;;;;;2224576;64;20098;-37
2022/01/22 07:17:59;;;;;;;4.10;3.63;;;-5.90;99.90;;;;;;2224569;64;20165;-35
2022/01/22 07:20:31;;;;;;;5.93;1.57;;;-5.80;99.90;;;;;;2224669;64;20118;-37
2022/01/22 07:23:03;;;;;;;3.60;1.93;;;-5.80;99.90;;;;;;2217750;64;20120;-37
2022/01/22 07:25:30;;;;;;;3.77;1.70;;;-5.80;99.90;;;;;;2222611;64;20189;-36
2022/01/22 07:27:56;;;;;;;2.90;1.03;;;-5.80;99.90;;;;;;2220560;64;20579;-37
2022/01/22 07:30:23;;;;;;;4.10;1.23;;;-5.80;99.90;;;;;;2220731;64;20084;-38
2022/01/22 07:32:49;;;;;;;2.93;1.30;;;-5.70;99.90;;;;;;2220680;64;20099;-36
2022/01/22 07:35:17;;;;;;;3.23;1.53;;;-5.70;99.90;;;;;;2220782;64;20099;-37
2022/01/22 07:37:44;;;;;;;4.73;1.20;;;-5.70;99.90;;;;;;2216916;64;20092;-36
2022/01/22 07:40:11;;;;;;;5.83;2.93;;;-5.60;99.90;;;;;;2220840;64;20084;-36
2022/01/22 07:42:39;;;;;;;4.53;2.60;;;-5.60;99.90;;;;;;2220394;64;20181;-37
2022/01/22 07:45:07;;;;;;;4.63;1.83;;;-5.60;99.90;;;;;;2220701;64;20097;-38
2022/01/22 07:47:33;;;;;;;6.83;1.97;;;-5.60;99.90;;;;;;2216510;64;20177;-38
2022/01/22 07:50:00;;;;;;;5.23;1.60;;;-5.50;99.90;;;;;;2220849;64;20171;-38
2022/01/22 07:52:27;;;;;;;7.03;3.63;;;-5.40;99.90;;;;;;2216665;64;20111;-41
2022/01/22 07:54:53;;;;;;;5.93;3.23;;;-5.40;99.90;;;;;;2220703;64;20092;-39
2022/01/22 07:57:20;;;;;;;3.47;2.47;;;-5.40;99.90;;;;;;2220433;64;20101;-37
2022/01/22 07:59:46;;;;;;;6.60;2.70;;;-5.30;99.90;;;;;;2220588;64;20199;-36
2022/01/22 08:02:15;;;;;;;2.60;0.80;;;-5.30;99.90;;;;;;2220433;64;20570;-37
2022/01/22 08:04:42;;;;;;;5.43;3.07;;;-5.30;99.90;;;;;;2220722;64;20107;-37
2022/01/22 08:07:09;;;;;;;6.57;3.63;;;-5.20;99.90;;;;;;2220400;64;20143;-39
2022/01/22 08:09:35;;;;;;;6.23;1.57;;;-5.10;99.90;;;;;;2220734;64;20587;-37
2022/01/22 08:12:02;;;;;;;3.33;1.53;;;-5.10;99.90;;;;;;2220434;64;20437;-37
2022/01/22 08:14:28;;;;;;;3.03;1.37;;;-5.20;99.90;;;;;;2220542;64;20093;-37
2022/01/22 08:16:55;;;;;;;17.50;4.50;;;-5.20;99.90;;;;;;2220606;64;20274;-37
2022/01/22 08:19:23;;;;;;;4.03;1.53;;;-5.10;99.90;;;;;;2216769;64;20084;-37
2022/01/22 08:21:53;;;;;;;5.63;1.70;;;-5.00;99.90;;;;;;2220573;64;20107;-39
2022/01/22 08:24:24;;;;;;;3.43;1.73;;;-4.90;99.90;;;;;;2216611;64;20467;-38
2022/01/22 08:27:06;;;;;;;4.50;2.53;;;-4.90;99.90;;;;;;2216832;64;20552;-40
2022/01/22 08:29:32;;;;;;;4.97;1.63;;;-5.00;99.90;;;;;;2220629;64;20168;-37
2022/01/22 08:37:28;;;;;;;;;;;-5.00;99.90;;;;;;2220706;64;20107;-39
2022/01/22 08:39:57;;;;;;;4.93;1.63;;;-4.90;99.90;;;;;;2220599;64;19995;-38
2022/01/22 08:42:24;;;;;;;3.90;1.33;;;-4.80;99.90;;;;;;2216712;64;20081;-39
2022/01/22 08:44:50;;;;;;;2.70;1.13;;;-4.90;99.90;;;;;;2216688;64;20104;-41
2022/01/22 08:47:20;;;;;;;3.80;1.83;;;-4.80;99.90;;;;;;2220420;64;20165;-39
2022/01/22 08:49:47;;;;;;;4.53;2.33;;;-4.90;99.90;;;;;;2220751;64;20092;-39
2022/01/22 08:52:15;;;;;;;2.40;1.50;;;-4.70;99.90;;;;;;2220373;64;20151;-41
2022/01/22 08:54:42;;;;;;;3.70;1.37;;;-4.90;99.90;;;;;;2216641;64;20104;-38
2022/01/22 08:57:11;;;;;;;2.70;1.00;;;-4.80;99.90;;;;;;2216486;64;20182;-38
2022/01/22 08:59:38;;;;;;;2.83;1.40;;;-4.90;99.90;;;;;;2216125;64;20139;-38
2022/01/22 09:02:05;;;;;;;2.03;1.03;;;-4.80;99.90;;;;;;2216690;64;20077;-40
2022/01/22 09:04:32;;;;;;;2.10;1.23;;;-4.90;99.90;;;;;;2216053;64;20132;-39
2022/01/22 09:06:59;;;;;;;5.07;2.67;;;-4.90;99.90;;;;;;2216638;64;20174;-37
2022/01/22 09:09:26;;;;;;;6.73;2.63;;;-4.90;99.90;;;;;;2216579;64;20563;-39
2022/01/22 09:11:54;;;;;;;3.20;1.40;;;-4.70;99.90;;;;;;2216590;64;20174;-38
2022/01/22 09:14:20;;;;;;;3.83;1.40;;;-4.70;99.90;;;;;;2216109;64;20099;-38
2022/01/22 09:16:47;;;;;;;4.70;1.30;;;-4.70;99.90;;;;;;2215998;64;20085;-40
2022/01/22 09:19:14;;;;;;;2.73;1.90;;;-4.70;99.90;;;;;;2215844;64;20093;-41
2022/01/22 09:21:43;;;;;;;2.83;1.17;;;-4.70;99.90;;;;;;2215730;64;20093;-39
2022/01/22 09:24:15;;;;;;;1.67;1.00;;;-4.70;99.90;;;;;;2212899;64;20146;-38
2022/01/22 09:26:42;;;;;;;1.80;1.30;;;-4.70;99.90;;;;;;2220216;64;20561;-38
2022/01/22 09:29:08;;;;;;;3.47;1.03;;;-4.60;99.90;;;;;;2212458;64;20659;-39
2022/01/22 09:31:35;;;;;;;1.77;0.93;;;-4.60;99.90;;;;;;2220317;64;20085;-38
2022/01/22 09:34:02;;;;;;;2.63;1.40;;;-4.80;99.90;;;;;;2220490;64;20077;-39
2022/01/22 09:36:29;;;;;;;1.63;0.80;;;-4.70;99.90;;;;;;2220443;64;20180;-39
2022/01/22 09:38:55;;;;;;;1.87;0.80;;;-4.70;99.90;;;;;;2220428;64;20195;-40
2022/01/22 09:41:23;;;;;;;2.20;1.17;;;-4.60;99.90;;;;;;2220167;64;20480;-39
2022/01/22 09:43:49;;;;;;;2.90;1.37;;;-4.70;99.90;;;;;;2212561;64;20540;-41
2022/01/22 09:46:16;;;;;;;4.10;2.00;;;-4.60;99.90;;;;;;2220169;64;20115;-40
2022/01/22 09:48:44;;;;;;;3.93;1.27;;;-4.60;99.90;;;;;;2220409;64;20100;-38
2022/01/22 09:51:11;;;;;;;2.00;0.93;;;-4.70;99.90;;;;;;2220149;64;20552;-38
2022/01/22 09:53:40;;;;;;;1.50;0.70;;;-4.60;99.90;;;;;;2223205;64;20088;-43
2022/01/22 09:56:09;;;;;;;2.10;1.03;;;-4.70;99.90;;;;;;2224786;64;20084;-38
2022/01/22 09:58:36;;;;;;;3.57;0.93;;;-4.90;99.90;;;;;;2224846;64;20092;-39
2022/01/22 10:01:21;;;;;;;2.50;1.10;;;-4.90;99.90;;;;;;2224879;64;20475;-39
2022/01/22 10:03:48;;;;;;;;;;;-4.80;99.90;;;;;;2221293;64;20520;-41
2022/01/22 10:06:21;;;;;;;2.33;0.70;;;-4.80;99.90;;;;;;2224949;64;19976;-40
2022/01/22 10:08:47;;;;;;;1.13;0.93;;;-4.80;99.90;;;;;;2220913;64;20096;-41
2022/01/22 10:11:27;;;;;;;3.73;1.80;;;-4.80;99.90;;;;;;2224830;64;20164;-40
2022/01/22 10:13:58;;;;;;;12.77;2.73;;;-4.80;99.90;;;;;;2224751;64;20156;-39
2022/01/22 10:16:26;;;;;;;2.73;0.90;;;-4.80;99.90;;;;;;2224926;64;20088;-39
2022/01/22 10:19:16;;;;;;;2.00;0.73;;;-4.80;99.90;;;;;;2224749;64;20085;-40
2022/01/22 10:21:57;;;;;;;1.57;0.77;;;-4.70;99.90;;;;;;2224911;64;20091;-39
2022/01/22 10:24:46;;;;;;;2.00;0.77;;;-4.80;99.90;;;;;;2224718;64;20084;-41
2022/01/22 10:27:38;;;;;;;3.10;1.77;;;-4.90;99.90;;;;;;2221033;64;20092;-40
2022/01/22 10:30:14;;;;;;;2.43;1.70;;;-4.90;99.90;;;;;;2220912;64;20190;-37
2022/01/22 10:32:58;;;;;;;2.30;1.30;;;-4.80;99.90;;;;;;2220826;64;20380;-40
2022/01/22 10:35:26;;;;;;;3.10;0.93;;;-4.80;99.90;;;;;;2211329;64;20098;-39
2022/01/22 10:37:57;;;;;;;1.57;0.90;;;-4.80;99.90;;;;;;2220903;64;20084;-41
2022/01/22 10:40:37;;;;;;;3.50;1.53;;;-4.80;99.90;;;;;;2220942;64;20172;-39
2022/01/22 10:43:32;;;;;;;3.27;0.73;;;-4.80;99.90;;;;;;2220783;64;20526;-39
2022/01/22 10:46:11;;;;;;;2.10;1.07;;;-4.80;99.90;;;;;;2220721;64;20096;-39
2022/01/22 10:48:42;;;;;;;2.70;1.30;;;-4.70;99.90;;;;;;2220746;64;20173;-40
2022/01/22 10:51:10;;;;;;;4.97;1.57;;;-4.80;99.90;;;;;;2220974;64;20603;-39
2022/01/22 10:53:42;;;;;;;1.97;1.73;;;-4.80;99.90;;;;;;2220695;64;20103;-41
2022/01/22 10:56:11;;;;;;;1.47;0.67;;;-4.90;99.90;;;;;;2220705;64;20080;-40
2022/01/22 10:58:50;;;;;;;2.10;0.97;;;-4.80;99.90;;;;;;2216911;64;20167;-40
2022/01/22 11:01:16;;;;;;;3.57;1.63;;;-4.90;99.90;;;;;;2220842;64;20093;-41
2022/01/22 11:03:43;;;;;;;3.77;1.47;;;-4.90;99.90;;;;;;2216765;64;20472;-40
2022/01/22 11:06:24;;;;;;;3.17;1.77;;;-4.90;99.90;;;;;;2216986;64;20626;-39
2022/01/22 11:08:50;;;;;;;4.23;1.87;;;-4.80;99.90;;;;;;2220671;64;20088;-39
2022/01/22 11:11:17;;;;;;;2.97;2.00;;;-4.80;99.90;;;;;;2217139;64;20100;-42
2022/01/22 11:13:43;;;;;;;3.70;1.43;;;-4.80;99.90;;;;;;2220582;64;20481;-38
2022/01/22 11:16:10;;;;;;;2.57;1.13;;;-4.80;99.90;;;;;;2220813;64;20177;-40
2022/01/22 11:18:39;;;;;;;3.00;1.23;;;-4.80;99.90;;;;;;2220638;64;20544;-39
2022/01/22 11:21:06;;;;;;;2.03;1.33;;;-4.90;99.90;;;;;;2213852;64;20120;-39
2022/01/22 11:23:35;;;;;;;3.07;1.57;;;-4.90;99.90;;;;;;2220727;64;20133;-41
2022/01/22 11:26:03;;;;;;;4.37;1.23;;;-4.90;99.90;;;;;;2223105;64;20092;-43
2022/01/22 11:28:30;;;;;;;7.57;2.63;;;-4.90;99.90;;;;;;2224413;64;20160;-40
2022/01/22 11:30:56;;;;;;;1.80;1.03;;;-4.80;99.90;;;;;;2224809;64;20476;-40
2022/01/22 11:33:24;;;;;;;4.10;1.63;;;-4.80;99.90;;;;;;2220753;64;20099;-39
2022/01/22 11:36:02;;;;;;;2.10;1.00;;;-4.70;99.90;;;;;;2220869;64;20169;-41
2022/01/22 11:38:40;;;;;;;2.10;0.93;;;-4.80;99.90;;;;;;2224476;64;20464;-41
2022/01/22 11:41:14;;;;;;;3.90;2.53;;;-4.80;99.90;;;;;;2224740;64;20096;-42
2022/01/22 11:43:55;;;;;;;2.57;1.30;;;-4.90;99.90;;;;;;2224519;64;20080;-43
2022/01/22 11:46:41;;;;;;;1.97;1.07;;;-4.90;99.90;;;;;;2224560;64;20103;-40
2022/01/22 11:49:12;;;;;;;2.67;1.10;;;-4.90;99.90;;;;;;2221274;64;20095;-40
2022/01/22 11:51:40;;;;;;;3.33;1.43;;;-5.00;99.90;;;;;;2224582;64;20165;-41
2022/01/22 11:54:07;;;;;;;4.40;1.37;;;-5.00;99.90;;;;;;2224285;64;20108;-42
2022/01/22 11:56:59;;;;;;;2.77;1.67;;;-5.00;99.90;;;;;;2224444;64;20474;-41
2022/01/22 11:59:27;;;;;;;3.10;0.87;;;-5.00;99.90;;;;;;2219440;64;20701;-42
2022/01/22 12:01:56;;;;;;;3.23;1.27;;;-5.00;99.90;;;;;;2224507;64;20103;-40
2022/01/22 12:04:28;;;;;;;2.63;1.10;;;-5.00;99.90;;;;;;2224398;64;20437;-41
2022/01/22 12:07:03;;;;;;;2.67;1.10;;;-5.00;99.90;;;;;;2217536;64;20526;-41
2022/01/22 12:09:40;;;;;;;4.10;1.27;;;-5.00;99.90;;;;;;2224361;64;20080;-41
2022/01/22 12:15:44;;;;;;;2.40;0.80;;;-5.10;99.90;;;;;;2224406;64;20468;-41
2022/01/22 12:18:14;;;;;;;3.10;1.10;;;-5.10;99.90;;;;;;2224319;64;20092;-40
2022/01/22 12:23:16;;;;;;;;;;;-5.10;99.90;;;;;;2224572;64;20147;-42
2022/01/22 12:25:43;;;;;;;3.57;0.80;;;-5.10;99.90;;;;;;2222082;64;19976;-42
2022/01/22 12:28:10;;;;;;;2.60;1.10;;;-5.10;99.90;;;;;;2220371;64;20649;-41
2022/01/22 12:30:48;;;;;;;2.20;1.10;;;-5.00;99.90;;;;;;2216824;64;20635;-41
2022/01/22 12:33:35;;;;;;;4.53;1.13;;;-5.10;99.90;;;;;;2207260;64;20686;-40
2022/01/22 12:36:03;;;;;;;2.37;0.87;;;-5.10;99.90;;;;;;2204250;64;20086;-41
2022/01/22 12:38:49;;;;;;;10.70;1.77;;;-5.10;99.90;;;;;;2207239;64;20097;-42
2022/01/22 12:41:36;;;;;;;1.60;0.80;;;-5.10;99.90;;;;;;2207279;64;20082;-39
2022/01/22 12:44:27;;;;;;;3.10;1.20;;;-5.10;99.90;;;;;;2207409;64;20101;-41
2022/01/22 12:46:56;;;;;;;3.67;1.63;;;-5.10;99.90;;;;;;2207092;64;20157;-39
2022/01/22 12:49:24;;;;;;;4.47;1.83;;;-5.10;99.90;;;;;;2207405;64;20117;-42
2022/01/22 12:52:00;;;;;;;2.93;1.10;;;-5.10;99.90;;;;;;2207148;64;20340;-41
2022/01/22 12:54:42;;;;;;;2.43;1.23;;;-5.10;99.90;;;;;;2207139;64;20685;-41
2022/01/22 12:57:11;;;;;;;2.23;1.00;;;-5.10;99.90;;;;;;2207138;64;20426;-41
2022/01/22 13:00:10;;;;;;;2.33;1.00;;;-5.10;99.90;;;;;;2207233;64;20086;-44
2022/01/22 13:02:41;;;;;;;4.00;1.43;;;-5.10;99.90;;;;;;2207259;64;20121;-41
2022/01/22 13:05:09;;;;;;;3.90;1.30;;;-5.20;99.90;;;;;;2214971;64;20097;-43
2022/01/22 13:07:52;;;;;;;2.53;1.00;;;-5.10;99.90;;;;;;2220228;64;20111;-40
2022/01/22 13:10:20;;;;;;;1.20;0.60;;;-5.20;99.90;;;;;;2220479;64;20085;-41
2022/01/22 13:12:47;;;;;;;3.13;1.30;;;-5.10;99.90;;;;;;2220426;64;20161;-45
2022/01/22 13:15:17;;;;;;;1.47;0.63;;;-5.10;99.90;;;;;;2220602;64;20093;-43
2022/01/22 13:17:52;;;;;;;2.63;1.47;;;-5.10;99.90;;;;;;2220259;64;20544;-43
2022/01/22 13:20:27;;;;;;;1.73;0.82;;;-5.10;99.90;;;;;;2220428;64;20124;-43
2022/01/22 13:22:54;;;;;;;4.50;1.87;;;-5.10;99.90;;;;;;2220465;64;20103;-43
2022/01/22 13:25:21;;;;;;;1.47;0.93;;;-5.10;99.90;;;;;;2222359;64;20148;-41
2022/01/22 13:28:01;;;;;;;2.27;1.17;;;-5.10;99.90;;;;;;2211325;64;20117;-44
2022/01/22 13:30:31;;;;;;;4.90;1.67;;;-5.10;99.90;;;;;;2211705;64;20086;-42
2022/01/22 13:33:04;;;;;;;3.33;1.53;;;-5.00;99.90;;;;;;2211509;64;20655;-42
2022/01/22 13:49:02;;;;;;;3.83;1.07;;;-5.00;99.90;;;;;;2207517;64;20207;-41
2022/01/22 13:51:29;;;;;;;3.30;2.03;;;-5.00;99.90;;;;;;2207671;64;20102;-43
2022/01/22 13:53:56;;;;;;;5.17;1.93;;;-5.00;99.90;;;;;;2207701;64;20108;-44
2022/01/22 13:56:50;;;;;;;2.80;1.43;;;-5.00;99.90;;;;;;2207701;64;20102;-41
2022/01/22 13:59:22;;;;;;;3.37;0.90;;;-4.90;99.90;;;;;;2207706;64;20652;-43
2022/01/22 14:02:04;;;;;;;2.47;1.27;;;-4.90;99.90;;;;;;2207934;64;20082;-42
2022/01/22 14:04:39;;;;;;;3.77;1.27;;;-4.90;99.90;;;;;;2209118;64;20462;-39
2022/01/22 14:07:19;;;;;;;3.87;2.13;;;-4.90;99.90;;;;;;2215546;64;20430;-42
2022/01/22 14:10:14;;;;;;;3.23;1.23;;;-4.80;99.90;;;;;;2215533;64;20100;-43
2022/01/22 14:12:44;;;;;;;3.10;1.57;;;-4.80;99.90;;;;;;2215257;64;20092;-43
2022/01/22 14:15:27;;;;;;;3.87;1.63;;;-4.80;99.90;;;;;;2215357;64;20086;-42
2022/01/22 14:18:19;;;;;;;4.60;1.73;;;-4.80;99.90;;;;;;2218433;64;20126;-41
2022/01/22 14:21:09;;;;;;;16.23;4.37;;;-4.80;99.90;;;;;;2224934;64;20080;-41
2022/01/22 14:23:37;;;;;;;4.20;2.30;;;-4.80;99.90;;;;;;2214940;64;20210;-42
2022/01/22 14:26:08;;;;;;;3.37;1.93;;;-4.80;99.90;;;;;;2216419;64;20450;-42
2022/01/22 14:29:14;;;;;;;4.73;1.80;;;-4.70;99.90;;;;;;2215380;64;20584;-40
2022/01/22 14:31:42;;;;;;;;;;;-4.80;99.90;;;;;;2215603;64;20162;-41
2022/01/22 14:34:11;;;;;;;3.03;1.07;;;-4.70;99.90;;;;;;2215361;64;19981;-40
2022/01/22 14:36:43;;;;;;;3.53;0.97;;;-4.70;99.90;;;;;;2215509;64;20093;-43
2022/01/22 14:45:08;;;;;;;3.20;1.50;;;-4.70;99.90;;;;;;2212151;64;20131;-43
2022/01/22 14:47:35;;;;;;;3.43;1.53;;;-4.80;99.90;;;;;;2214980;64;20244;-42
2022/01/22 14:50:06;;;;;;;3.97;2.07;;;-4.80;99.90;;;;;;2215138;64;20658;-43
2022/01/22 14:52:32;;;;;;;3.70;1.37;;;-4.70;99.90;;;;;;2215012;64;20123;-41
2022/01/22 14:55:00;;;;;;;2.53;0.83;;;-4.80;99.90;;;;;;2218523;64;20088;-44
2022/01/22 14:57:35;;;;;;;1.67;0.50;;;-4.70;99.90;;;;;;2216832;64;20104;-43